Time;durP1;ratioP1;P1;durP2;ratioP2;P2;SDS_P1;SDS_P2;PMS_P1;PMS_P2;Temp;Humidity;BMP_temperature;BMP_pressure;BME280_temperature;BME280_humidity;BME280_pressure;Samples;Min_cycle;Max_cycle;Signal;HPM_P1;HPM_P2
2022/12/28 00:00:52;;;;;;;2.63;0.50;;;;;;;2.49;100.00;99962.56;1686109;83;21010;-53
2022/12/28 00:03:19;;;;;;;1.77;0.67;;;;;;;2.48;100.00;99960.80;1734652;81;21109;-53
2022/12/28 00:05:45;;;;;;;5.20;0.80;;;;;;;2.45;100.00;99972.81;1724322;81;21113;-53
2022/12/28 00:08:11;;;;;;;4.53;0.60;;;;;;;2.41;100.00;99973.73;1725411;81;21959;-54
2022/12/28 00:10:38;;;;;;;3.67;0.50;;;;;;;2.36;100.00;99966.28;1731468;81;21042;-53
2022/12/28 00:13:04;;;;;;;3.57;0.50;;;;;;;2.32;100.00;99972.52;1731844;81;22012;-54
2022/12/28 00:15:33;;;;;;;9.30;0.70;;;;;;;2.28;100.00;99975.22;1728624;81;21748;-54
2022/12/28 00:18:00;;;;;;;3.03;0.60;;;;;;;2.25;100.00;99970.37;1726372;81;21062;-52
2022/12/28 00:20:27;;;;;;;2.57;0.67;;;;;;;2.22;100.00;99975.72;1728928;81;21941;-53
2022/12/28 00:22:53;;;;;;;3.00;0.60;;;;;;;2.19;100.00;99986.39;1720143;81;21090;-53
2022/12/28 00:25:19;;;;;;;1.37;0.60;;;;;;;2.17;100.00;99984.19;1717230;81;21108;-53
2022/12/28 00:27:46;;;;;;;3.77;0.60;;;;;;;2.16;100.00;99987.73;1719606;81;21049;-54
2022/12/28 00:30:13;;;;;;;3.77;0.87;;;;;;;2.15;100.00;99984.20;1720506;81;21065;-53
2022/12/28 00:32:39;;;;;;;2.63;0.40;;;;;;;2.16;100.00;99987.30;1724582;81;22611;-54
2022/12/28 00:35:06;;;;;;;3.23;0.70;;;;;;;2.19;100.00;99990.38;1717128;81;21080;-53
2022/12/28 00:37:33;;;;;;;6.57;0.70;;;;;;;2.20;100.00;99988.16;1725676;81;21062;-53
2022/12/28 00:40:00;;;;;;;2.73;0.70;;;;;;;2.21;100.00;99982.80;1731151;81;21041;-54
2022/12/28 00:42:28;;;;;;;4.63;0.80;;;;;;;2.21;100.00;99987.27;1719527;81;21057;-53
2022/12/28 00:44:56;;;;;;;4.80;0.70;;;;;;;2.16;100.00;99983.31;1718942;81;21919;-53
2022/12/28 00:47:22;;;;;;;3.73;0.80;;;;;;;2.13;100.00;99987.76;1715206;82;20963;-53
2022/12/28 00:49:48;;;;;;;4.03;0.57;;;;;;;2.09;100.00;99994.02;1716505;82;21445;-53
2022/12/28 00:52:15;;;;;;;3.70;0.80;;;;;;;2.06;100.00;99983.41;1712847;81;22025;-53
2022/12/28 00:54:41;;;;;;;3.40;0.60;;;;;;;2.03;100.00;99996.30;1712786;82;21048;-52
2022/12/28 00:57:07;;;;;;;3.30;0.67;;;;;;;2.03;100.00;99992.31;1677935;83;21286;-53
2022/12/28 00:59:34;;;;;;;3.70;0.87;;;;;;;2.03;100.00;99996.74;1687824;83;21052;-53
2022/12/28 01:02:01;;;;;;;5.10;0.80;;;;;;;2.04;100.00;100001.16;1682585;83;21103;-53
2022/12/28 01:04:27;;;;;;;1.17;0.50;;;;;;;2.08;100.00;99994.91;1680061;83;21527;-53
2022/12/28 01:06:54;;;;;;;3.37;0.60;;;;;;;2.11;100.00;99997.10;1673481;84;21518;-53
2022/12/28 01:09:21;;;;;;;4.63;0.83;;;;;;;2.14;100.00;99993.06;1671862;84;21909;-53
2022/12/28 01:11:47;;;;;;;6.50;1.10;;;;;;;2.18;100.00;99998.79;1674197;84;21113;-53
2022/12/28 01:14:14;;;;;;;2.70;0.90;;;;;;;2.19;100.00;99999.67;1721302;81;21033;-52
2022/12/28 01:16:40;;;;;;;4.90;0.80;;;;;;;2.19;100.00;100001.88;1716423;81;21446;-54
2022/12/28 01:19:10;;;;;;;8.37;1.57;;;;;;;2.19;100.00;99998.34;1684010;83;21104;-54
2022/12/28 01:21:36;;;;;;;3.10;1.10;;;;;;;2.19;100.00;99997.90;1715205;81;21847;-54
2022/12/28 01:24:04;;;;;;;8.57;1.20;;;;;;;2.17;100.00;99996.14;1697356;82;21124;-53
2022/12/28 01:26:33;;;;;;;2.57;0.80;;;;;;;2.15;100.00;100006.78;1704246;82;21045;-54
2022/12/28 01:28:59;;;;;;;4.60;0.90;;;;;;;2.16;100.00;100002.34;1692210;82;21501;-54
2022/12/28 01:31:26;;;;;;;7.87;0.90;;;;;;;2.17;100.00;100008.09;1701986;83;21069;-53
2022/12/28 01:33:52;;;;;;;5.57;1.47;;;;;;;2.19;100.00;100019.14;1664993;83;22660;-53
2022/12/28 01:36:24;;;;;;;5.27;0.93;;;;;;;2.20;100.00;100003.64;1701052;82;21183;-55
2022/12/28 01:38:56;;;;;;;5.60;0.73;;;;;;;2.22;100.00;100011.13;1698903;82;21018;-54
2022/12/28 01:41:24;;;;;;;5.63;0.83;;;;;;;2.24;100.00;100004.03;1705669;83;21060;-56
2022/12/28 01:43:59;;;;;;;4.80;0.80;;;;;;;2.28;100.00;100001.78;1700861;82;21073;-54
2022/12/28 01:46:37;;;;;;;3.97;0.90;;;;;;;2.32;100.00;99997.75;1697416;83;21826;-54
2022/12/28 01:49:15;;;;;;;5.20;1.10;;;;;;;2.36;100.00;100007.45;1697167;82;21410;-54
2022/12/28 01:51:47;;;;;;;4.27;0.70;;;;;;;2.39;100.00;99998.10;1695953;83;21057;-53
2022/12/28 01:54:14;;;;;;;2.27;0.70;;;;;;;2.40;100.00;100000.75;1697721;82;21045;-54
2022/12/28 01:56:40;;;;;;;4.40;0.80;;;;;;;2.42;100.00;99996.75;1697133;82;21069;-55
2022/12/28 01:59:06;;;;;;;2.90;0.70;;;;;;;2.42;100.00;100005.60;1703698;82;21928;-53
2022/12/28 02:01:35;;;;;;;6.53;0.90;;;;;;;2.41;100.00;100000.30;1705708;82;21716;-53
2022/12/28 02:04:01;;;;;;;2.77;0.80;;;;;;;2.39;100.00;100008.73;1703984;83;21030;-53
2022/12/28 02:06:28;;;;;;;3.53;0.60;;;;;;;2.38;100.00;100005.67;1695050;82;21062;-50
2022/12/28 02:09:18;;;;;;;2.90;0.90;;;;;;;2.37;100.00;100006.56;1694901;82;21087;-52
2022/12/28 02:11:44;;;;;;;5.40;0.70;;;;;;;2.39;100.00;100014.05;1697802;82;23126;-50
2022/12/28 02:14:11;;;;;;;2.17;1.10;;;;;;;2.41;100.00;100010.93;1698473;82;21668;-52
2022/12/28 02:16:37;;;;;;;5.63;1.03;;;;;;;2.42;100.00;100009.59;1677984;83;21112;-51
2022/12/28 02:19:04;;;;;;;2.83;0.80;;;;;;;2.45;100.00;100015.33;1704742;82;21124;-51
2022/12/28 02:21:57;;;;;;;1.43;0.60;;;;;;;2.46;100.00;100008.67;1699118;82;21097;-54
2022/12/28 02:24:55;;;;;;;2.90;0.60;;;;;;;2.50;100.00;100009.05;1710252;80;21331;-50
2022/12/28 02:27:33;;;;;;;2.50;0.80;;;;;;;2.53;100.00;100014.78;1737087;80;21701;-53
2022/12/28 02:30:08;;;;;;;5.67;0.70;;;;;;;2.55;100.00;100013.00;1739567;80;21065;-52
2022/12/28 02:32:58;;;;;;;2.67;1.00;;;;;;;2.57;100.00;100012.51;1734534;80;21034;-51
2022/12/28 02:35:57;;;;;;;3.60;0.73;;;;;;;2.57;100.00;100013.84;1737912;80;21087;-51
2022/12/28 02:38:43;;;;;;;5.57;0.90;;;;;;;2.58;100.00;100020.91;1720451;80;21796;-52
2022/12/28 02:41:13;;;;;;;6.13;0.77;;;;;;;2.58;100.00;100018.26;1746643;80;20979;-51
2022/12/28 02:43:39;;;;;;;2.73;0.93;;;;;;;2.55;100.00;100016.50;1703249;82;21037;-53
2022/12/28 02:52:36;;;;;;;3.57;0.80;;;;;;;2.49;100.00;100032.98;1739442;81;21786;-51
2022/12/28 02:58:29;;;;;;;5.10;0.90;;;;;;;2.48;100.00;100030.77;1730419;80;21505;-51
2022/12/28 03:01:38;;;;;;;2.20;0.70;;;;;;;2.49;100.00;100032.98;1737789;80;20963;-51
2022/12/28 03:04:28;;;;;;;2.70;0.80;;;;;;;2.53;100.00;100036.93;1723212;80;21486;-50
2022/12/28 03:10:17;;;;;;;3.77;0.70;;;;;;;2.57;100.00;100041.30;1742628;80;22100;-51
2022/12/28 03:13:04;;;;;;;3.17;0.90;;;;;;;2.60;100.00;100044.37;1726636;80;21756;-51
2022/12/28 03:15:36;;;;;;;3.70;0.70;;;;;;;2.59;100.00;100045.27;1717602;80;21797;-51
2022/12/28 03:32:04;;;;;;;4.73;0.87;;;;;;;2.61;100.00;100061.64;1740707;80;21133;-52
2022/12/28 03:34:30;;;;;;;7.30;0.93;;;;;;;2.59;100.00;100065.20;1702028;81;22104;-52
2022/12/28 03:37:35;;;;;;;3.03;1.10;;;;;;;2.58;100.00;100066.09;1736330;81;21576;-52
2022/12/28 03:40:27;;;;;;;3.57;0.77;;;;;;;2.58;100.00;100066.09;1699011;82;21063;-51
2022/12/28 03:46:03;;;;;;;0.97;0.53;;;;;;;2.60;100.00;100061.65;1735943;80;21566;-54
2022/12/28 03:48:33;;;;;;;2.97;0.83;;;;;;;2.63;100.00;100065.61;1738061;80;21126;-49
2022/12/28 03:51:00;;;;;;;5.37;0.93;;;;;;;2.65;100.00;100068.66;1735956;80;21007;-51
2022/12/28 03:53:31;;;;;;;1.87;0.90;;;;;;;2.68;100.00;100073.07;1727470;80;21065;-52
2022/12/28 03:56:25;;;;;;;3.90;0.80;;;;;;;2.71;100.00;100074.37;1734056;80;21102;-52
2022/12/28 03:58:54;;;;;;;3.33;1.00;;;;;;;2.73;100.00;100075.66;1732495;80;21569;-53
2022/12/28 04:01:22;;;;;;;2.60;1.10;;;;;;;2.73;100.00;100076.55;1735351;80;21670;-50
2022/12/28 04:03:48;;;;;;;4.83;1.10;;;;;;;2.75;100.00;100080.52;1716133;80;21069;-52
2022/12/28 04:06:17;;;;;;;5.10;1.20;;;;;;;2.73;100.00;100084.52;1734066;80;21042;-49
2022/12/28 04:08:44;;;;;;;4.50;0.83;;;;;;;2.69;100.00;100079.27;1740062;80;21099;-51
2022/12/28 04:11:11;;;;;;;2.30;0.80;;;;;;;2.66;100.00;100074.86;1733044;80;21101;-52
2022/12/28 04:13:37;;;;;;;3.80;1.30;;;;;;;2.64;100.00;100080.19;1740320;80;21914;-52
2022/12/28 04:16:12;;;;;;;4.93;0.90;;;;;;;2.62;100.00;100083.78;1735235;80;21037;-53
2022/12/28 04:18:39;;;;;;;2.47;0.90;;;;;;;2.61;100.00;100087.33;1738641;81;21050;-51
2022/12/28 04:21:05;;;;;;;5.63;1.47;;;;;;;2.60;100.00;100086.45;1730569;81;21107;-52
2022/12/28 04:23:33;;;;;;;4.07;0.80;;;;;;;2.62;100.00;100086.44;1744645;80;20979;-52
2022/12/28 04:26:12;;;;;;;4.47;0.70;;;;;;;2.64;100.00;100089.94;1699804;82;21926;-52
2022/12/28 04:28:38;;;;;;;3.20;0.73;;;;;;;2.65;100.00;100095.69;1718558;82;21461;-51
2022/12/28 04:31:16;;;;;;;2.30;0.63;;;;;;;2.67;100.00;100100.55;1718721;81;21431;-51
2022/12/28 04:33:44;;;;;;;4.20;0.70;;;;;;;2.69;100.00;100099.20;1744793;80;21636;-52
2022/12/28 04:36:13;;;;;;;1.57;0.77;;;;;;;2.72;100.00;100101.84;1708119;82;21059;-52
2022/12/28 04:38:40;;;;;;;1.87;0.70;;;;;;;2.75;100.00;100100.45;1746193;80;21858;-50
2022/12/28 04:41:06;;;;;;;3.97;0.80;;;;;;;2.76;100.00;100104.44;1750538;80;21386;-52
2022/12/28 04:43:33;;;;;;;4.80;0.97;;;;;;;2.77;100.00;100099.55;1707710;82;21086;-51
2022/12/28 04:46:02;;;;;;;5.53;0.80;;;;;;;2.77;100.00;100116.83;1746683;80;21607;-50
2022/12/28 04:48:29;;;;;;;3.17;0.90;;;;;;;2.75;100.00;100113.75;1749079;80;21011;-53
2022/12/28 04:50:55;;;;;;;3.97;1.00;;;;;;;2.72;100.00;100111.14;1750823;80;21795;-54
2022/12/28 04:53:21;;;;;;;3.57;0.80;;;;;;;2.67;100.00;100115.16;1744691;80;20974;-51
2022/12/28 04:55:48;;;;;;;1.97;0.80;;;;;;;2.64;100.00;100132.46;1749002;80;21005;-51
2022/12/28 04:58:14;;;;;;;3.27;0.80;;;;;;;2.62;100.00;100124.53;1733001;80;21054;-51
2022/12/28 05:00:41;;;;;;;4.03;0.83;;;;;;;2.61;100.00;100128.08;1744437;80;21382;-54
2022/12/28 05:03:08;;;;;;;1.90;0.83;;;;;;;2.60;100.00;100128.09;1744004;80;22683;-50
2022/12/28 05:05:35;;;;;;;4.07;0.70;;;;;;;2.61;100.00;100125.87;1746382;80;21057;-51
2022/12/28 05:08:04;;;;;;;2.50;0.70;;;;;;;2.63;100.00;100132.05;1693434;82;21522;-50
2022/12/28 05:10:31;;;;;;;2.40;0.80;;;;;;;2.63;100.00;100134.27;1744503;80;20975;-51
2022/12/28 05:12:58;;;;;;;1.07;0.70;;;;;;;2.64;100.00;100125.37;1741031;80;21040;-52
2022/12/28 05:15:24;;;;;;;2.70;0.60;;;;;;;2.65;100.00;100134.23;1744729;80;21838;-51
2022/12/28 05:17:51;;;;;;;3.57;0.80;;;;;;;2.66;100.00;100142.64;1747526;80;21037;-51
2022/12/28 05:20:19;;;;;;;1.20;0.70;;;;;;;2.69;100.00;100142.62;1742432;80;21375;-53
2022/12/28 05:22:45;;;;;;;6.30;0.63;;;;;;;2.69;100.00;100145.72;1737963;80;21700;-53
2022/12/28 05:25:12;;;;;;;2.97;0.80;;;;;;;2.69;100.00;100139.08;1735508;80;21058;-51
2022/12/28 05:27:38;;;;;;;2.50;1.07;;;;;;;2.68;100.00;100142.63;1737313;80;22927;-53
2022/12/28 05:30:07;;;;;;;1.60;0.80;;;;;;;2.65;100.00;100148.84;1736976;80;21609;-52
2022/12/28 05:32:33;;;;;;;3.20;0.80;;;;;;;2.64;100.00;100149.29;1739013;80;21411;-51
2022/12/28 05:34:59;;;;;;;2.83;1.00;;;;;;;2.61;100.00;100155.98;1737673;80;21019;-50
2022/12/28 05:38:11;;;;;;;6.03;0.87;;;;;;;2.55;100.00;100134.77;1787442;78;23119;-51
2022/12/28 05:40:38;;;;;;;5.17;1.20;;;;;;;2.51;100.00;100158.73;1766757;79;21147;-52
2022/12/28 05:43:04;;;;;;;1.97;0.80;;;;;;;2.49;100.00;100167.16;1764662;80;21822;-53
2022/12/28 05:45:32;;;;;;;2.83;1.07;;;;;;;2.45;100.00;100163.67;1764858;80;21074;-52
2022/12/28 05:47:58;;;;;;;3.30;0.80;;;;;;;2.44;100.00;100169.88;1769652;80;21378;-51
2022/12/28 05:50:25;;;;;;;2.17;0.90;;;;;;;2.46;100.00;100169.87;1759821;80;21444;-53
2022/12/28 05:52:51;;;;;;;3.53;0.80;;;;;;;2.47;100.00;100178.24;1773197;80;21002;-52
2022/12/28 05:55:18;;;;;;;2.53;0.80;;;;;;;2.48;100.00;100176.02;1774382;80;21828;-51
2022/12/28 05:57:44;;;;;;;2.87;0.93;;;;;;;2.50;100.00;100176.45;1777845;79;20967;-55
2022/12/28 06:00:12;;;;;;;2.70;0.70;;;;;;;2.51;100.00;100180.00;1709627;81;21041;-55
2022/12/28 06:02:38;;;;;;;4.50;1.10;;;;;;;2.52;100.00;100177.77;1706515;81;21399;-52
2022/12/28 06:05:07;;;;;;;3.93;0.80;;;;;;;2.52;100.00;100185.75;1737800;81;21037;-51
2022/12/28 06:07:33;;;;;;;3.67;1.07;;;;;;;2.52;100.00;100191.95;1734160;81;22502;-53
2022/12/28 06:09:59;;;;;;;2.33;0.90;;;;;;;2.52;100.00;100192.39;1714117;81;21591;-51
2022/12/28 06:12:26;;;;;;;1.20;0.80;;;;;;;2.51;100.00;100197.27;1733896;80;21370;-53
2022/12/28 06:14:53;;;;;;;3.10;0.90;;;;;;;2.50;100.00;100201.70;1734958;81;21142;-52
2022/12/28 06:17:19;;;;;;;2.40;1.03;;;;;;;2.49;100.00;100212.33;1735452;81;21327;-52
2022/12/28 06:19:45;;;;;;;4.37;1.13;;;;;;;2.47;100.00;100208.80;1687471;82;21864;-51
2022/12/28 06:22:13;;;;;;;7.13;1.80;;;;;;;2.44;100.00;100225.67;1686691;83;21115;-54
2022/12/28 06:24:39;;;;;;;5.23;1.33;;;;;;;2.42;100.00;100231.88;1692349;83;21108;-51
2022/12/28 06:27:05;;;;;;;4.43;1.30;;;;;;;2.39;100.00;100234.11;1689513;83;21085;-52
2022/12/28 06:29:33;;;;;;;4.10;1.40;;;;;;;2.37;100.00;100235.03;1692867;83;21567;-51
2022/12/28 06:32:00;;;;;;;3.77;1.60;;;;;;;2.38;100.00;100228.83;1693737;82;21822;-50
2022/12/28 06:34:26;;;;;;;2.57;1.00;;;;;;;2.39;100.00;100233.22;1689762;83;21104;-52
2022/12/28 06:36:52;;;;;;;3.40;1.10;;;;;;;2.42;100.00;100240.73;1685418;83;21072;-52
2022/12/28 06:39:19;;;;;;;2.80;1.10;;;;;;;2.47;100.00;100247.33;1681930;83;21098;-54
2022/12/28 06:41:45;;;;;;;8.30;1.70;;;;;;;2.50;100.00;100253.52;1672896;83;21103;-53
2022/12/28 06:44:12;;;;;;;4.67;1.70;;;;;;;2.53;100.00;100252.62;1673949;83;21836;-52
2022/12/28 06:46:39;;;;;;;5.57;1.53;;;;;;;2.56;100.00;100256.12;1673306;83;21019;-52
2022/12/28 06:49:05;;;;;;;4.47;1.80;;;;;;;2.59;100.00;100256.10;1673809;83;21028;-52
2022/12/28 06:51:39;;;;;;;4.87;1.87;;;;;;;2.60;100.00;100258.31;1672923;83;21487;-52
2022/12/28 06:54:05;;;;;;;4.67;1.97;;;;;;;2.60;100.00;100267.62;1674734;83;21486;-52
2022/12/28 06:56:33;;;;;;;5.77;1.50;;;;;;;2.59;100.00;100270.72;1673685;83;22026;-52
2022/12/28 06:59:00;;;;;;;11.00;2.17;;;;;;;2.57;100.00;100272.94;1675141;83;21780;-54
2022/12/28 07:01:36;;;;;;;7.07;1.50;;;;;;;2.55;100.00;100277.41;1672800;83;21974;-52
2022/12/28 07:04:03;;;;;;;7.80;2.17;;;;;;;2.52;100.00;100272.11;1675469;84;21069;-53
2022/12/28 07:06:36;;;;;;;7.57;2.23;;;;;;;2.50;100.00;100276.55;1674282;83;21057;-52
2022/12/28 07:09:06;;;;;;;4.37;1.30;;;;;;;2.52;100.00;100276.09;1657307;83;21806;-52
2022/12/28 07:11:33;;;;;;;2.63;1.10;;;;;;;2.52;100.00;100279.64;1672746;83;21091;-52
2022/12/28 07:13:59;;;;;;;3.43;1.10;;;;;;;2.54;100.00;100283.62;1734242;80;21049;-54
2022/12/28 07:16:27;;;;;;;5.27;1.60;;;;;;;2.53;100.00;100286.72;1734678;80;21038;-53
2022/12/28 07:18:54;;;;;;;2.97;1.60;;;;;;;2.54;100.00;100289.82;1732815;80;21100;-51
2022/12/28 07:21:25;;;;;;;7.97;1.30;;;;;;;2.55;100.00;100297.34;1733596;80;23624;-55
2022/12/28 07:23:53;;;;;;;3.27;1.50;;;;;;;2.53;100.00;100294.69;1734849;80;21610;-53
2022/12/28 07:26:26;;;;;;;7.73;1.17;;;;;;;2.53;100.00;100300.01;1738539;80;21049;-54
2022/12/28 07:28:54;;;;;;;2.40;1.30;;;;;;;2.54;100.00;100290.27;1735347;80;21507;-52
2022/12/28 07:31:26;;;;;;;4.73;1.13;;;;;;;2.54;100.00;100287.16;1729593;80;21508;-52
2022/12/28 07:33:54;;;;;;;3.23;1.30;;;;;;;2.53;100.00;100293.81;1738752;80;21827;-52
2022/12/28 07:36:22;;;;;;;4.90;1.33;;;;;;;2.51;100.00;100292.48;1734951;80;20975;-53
2022/12/28 07:38:49;;;;;;;3.57;1.50;;;;;;;2.49;100.00;100296.92;1743919;80;21059;-52
2022/12/28 07:41:18;;;;;;;5.37;1.20;;;;;;;2.49;100.00;100293.38;1710030;82;21128;-51
2022/12/28 07:43:44;;;;;;;2.77;0.80;;;;;;;2.50;100.00;100292.05;1677974;83;21048;-51
2022/12/28 07:46:13;;;;;;;3.37;1.00;;;;;;;2.53;100.00;100300.01;1696902;82;21794;-55
2022/12/28 07:48:40;;;;;;;5.27;1.30;;;;;;;2.57;100.00;100299.52;1695700;82;21077;-51
2022/12/28 07:51:15;;;;;;;6.63;1.13;;;;;;;2.60;100.00;100299.52;1697724;83;21275;-50
2022/12/28 07:53:43;;;;;;;2.33;0.90;;;;;;;2.65;100.00;100314.52;1688777;83;21620;-52
2022/12/28 07:56:09;;;;;;;4.70;1.20;;;;;;;2.71;100.00;100307.41;1692661;83;21489;-49
2022/12/28 07:58:36;;;;;;;4.93;1.20;;;;;;;2.75;100.00;100310.02;1694942;83;21929;-50
2022/12/28 08:01:14;;;;;;;4.47;1.00;;;;;;;2.77;100.00;100310.02;1696040;83;21096;-52
2022/12/28 08:03:40;;;;;;;4.67;1.43;;;;;;;2.78;100.00;100318.42;1691730;83;21072;-50
2022/12/28 08:06:12;;;;;;;5.70;0.97;;;;;;;2.76;100.00;100311.78;1695192;82;21797;-51
2022/12/28 08:08:42;;;;;;;4.60;1.53;;;;;;;2.75;100.00;100299.83;1693862;83;21038;-50
2022/12/28 08:11:13;;;;;;;6.10;1.57;;;;;;;2.73;100.00;100315.78;1692874;83;21799;-50
2022/12/28 08:13:41;;;;;;;3.10;1.10;;;;;;;2.72;100.00;100311.84;1691153;83;20978;-52
2022/12/28 08:16:11;;;;;;;4.30;1.40;;;;;;;2.74;100.00;100317.55;1696116;82;21131;-50
2022/12/28 08:18:39;;;;;;;5.90;1.17;;;;;;;2.78;100.00;100315.77;1695924;82;21057;-50
2022/12/28 08:21:15;;;;;;;3.60;0.93;;;;;;;2.82;100.00;100317.05;1695070;82;21074;-50
2022/12/28 08:23:43;;;;;;;4.47;1.10;;;;;;;2.87;100.00;100321.90;1695047;82;21837;-54
2022/12/28 08:26:17;;;;;;;3.23;1.00;;;;;;;2.91;100.00;100320.08;1689596;82;21091;-53
2022/12/28 08:28:44;;;;;;;2.95;1.10;;;;;;;2.93;100.00;100322.28;1700156;82;21062;-49
2022/12/28 08:31:17;;;;;;;4.20;1.17;;;;;;;2.95;100.00;100328.03;1697864;83;21033;-51
2022/12/28 08:33:43;;;;;;;3.10;0.90;;;;;;;2.94;100.00;100322.72;1693470;82;20987;-51
2022/12/28 08:36:09;;;;;;;2.23;1.00;;;;;;;2.93;100.00;100327.16;1692751;82;22572;-49
2022/12/28 08:38:37;;;;;;;2.77;0.90;;;;;;;2.92;100.00;100325.39;1686426;83;21455;-51
2022/12/28 08:41:04;;;;;;;2.37;0.90;;;;;;;2.95;100.00;100326.70;1680354;83;20991;-51
2022/12/28 08:43:31;;;;;;;3.97;1.00;;;;;;;2.99;100.00;100327.55;1680113;83;21011;-49
2022/12/28 08:46:02;;;;;;;2.50;0.80;;;;;;;3.02;100.00;100331.07;1680108;83;21011;-51
2022/12/28 08:48:29;;;;;;;1.33;0.70;;;;;;;3.04;100.00;100333.28;1681532;83;21570;-50
2022/12/28 08:51:01;;;;;;;2.70;0.83;;;;;;;3.08;100.00;100333.23;1678643;83;21000;-53
2022/12/28 08:53:27;;;;;;;4.30;1.23;;;;;;;3.09;100.00;100338.98;1689119;83;21088;-51
2022/12/28 08:55:54;;;;;;;9.27;1.80;;;;;;;3.10;100.00;100348.73;1686986;83;21006;-54
2022/12/28 08:58:21;;;;;;;4.17;0.90;;;;;;;3.10;100.00;100361.59;1685407;83;21573;-52
2022/12/28 09:00:48;;;;;;;2.50;1.07;;;;;;;3.07;100.00;100350.97;1729102;80;21767;-53
2022/12/28 09:03:14;;;;;;;2.67;0.80;;;;;;;3.03;100.00;100347.91;1738795;80;20994;-49
2022/12/28 09:05:42;;;;;;;3.77;0.80;;;;;;;3.00;100.00;100342.61;1729994;80;21092;-52
2022/12/28 09:08:09;;;;;;;4.07;1.07;;;;;;;3.01;100.00;100347.92;1747542;80;21046;-52
2022/12/28 09:10:35;;;;;;;4.50;0.83;;;;;;;3.03;100.00;100342.59;1733133;80;21042;-51
2022/12/28 09:13:02;;;;;;;3.37;0.90;;;;;;;3.06;100.00;100349.67;1733016;80;21852;-51
2022/12/28 09:15:30;;;;;;;5.80;1.17;;;;;;;3.13;100.00;100344.73;1734456;80;21014;-50
2022/12/28 09:17:56;;;;;;;2.43;0.70;;;;;;;3.17;100.00;100342.46;1733998;80;21092;-49
2022/12/28 09:20:22;;;;;;;6.40;1.10;;;;;;;3.20;100.00;100338.45;1738293;80;21069;-49
2022/12/28 09:22:49;;;;;;;2.53;1.07;;;;;;;3.24;100.00;100346.83;1737649;80;20981;-50
2022/12/28 09:25:15;;;;;;;1.93;0.87;;;;;;;3.28;100.00;100344.59;1740106;80;21781;-53
2022/12/28 09:27:42;;;;;;;4.33;0.90;;;;;;;3.33;100.00;100357.38;1736604;80;21109;-50
2022/12/28 09:30:09;;;;;;;3.43;0.90;;;;;;;3.33;100.00;100360.93;1734782;80;22047;-50
2022/12/28 09:32:36;;;;;;;3.40;0.70;;;;;;;3.38;100.00;100363.13;1731714;80;21073;-53
2022/12/28 09:35:03;;;;;;;3.17;0.70;;;;;;;3.43;100.00;100361.73;1732848;80;21079;-52
2022/12/28 09:37:30;;;;;;;2.27;0.70;;;;;;;3.48;100.00;100363.92;1734500;80;22422;-52
2022/12/28 09:39:57;;;;;;;6.83;1.40;;;;;;;3.53;100.00;100366.07;1731821;80;21579;-50
2022/12/28 09:42:27;;;;;;;5.23;1.00;;;;;;;3.59;100.00;100363.78;1733745;80;21068;-50
2022/12/28 09:45:08;;;;;;;4.73;1.00;;;;;;;3.61;100.00;100357.55;1730264;80;21102;-50
2022/12/28 09:47:50;;;;;;;4.60;1.40;;;;;;;3.65;100.00;100354.42;1710438;81;21101;-49
2022/12/28 09:50:28;;;;;;;4.60;1.27;;;;;;;3.69;100.00;100365.45;1729041;80;22637;-50
2022/12/28 09:53:06;;;;;;;3.43;1.20;;;;;;;3.71;100.00;100356.56;1727613;80;21093;-48
2022/12/28 09:55:35;;;;;;;3.17;0.70;;;;;;;3.74;100.00;100372.97;1734046;80;21104;-49
2022/12/28 09:58:01;;;;;;;2.73;0.90;;;;;;;3.76;100.00;100380.02;1737138;80;21062;-52
2022/12/28 10:00:44;;;;;;;10.50;0.90;;;;;;;3.77;100.00;100375.13;1734694;80;21617;-52
2022/12/28 10:03:25;;;;;;;2.80;1.10;;;;;;;3.79;100.00;100379.11;1734581;80;21807;-50
2022/12/28 10:05:53;;;;;;;8.40;1.20;;;;;;;3.81;100.00;100370.66;1732904;81;21048;-50
2022/12/28 10:08:21;;;;;;;5.63;0.90;;;;;;;3.86;100.00;100371.93;1733862;80;21086;-50
2022/12/28 10:11:41;;;;;;;5.63;0.90;;;;;;;3.93;100.00;100351.86;1792626;77;22601;-49
2022/12/28 10:14:24;;;;;;;1.97;0.70;;;;;;;4.02;100.00;100385.05;1763482;79;21054;-49
2022/12/28 10:16:51;;;;;;;4.03;0.63;;;;;;;4.08;100.00;100386.78;1765790;78;23033;-52
2022/12/28 10:19:21;;;;;;;6.33;0.80;;;;;;;4.06;100.00;100381.47;1746692;79;21047;-51
2022/12/28 10:21:50;;;;;;;4.40;0.50;;;;;;;4.04;100.00;100386.37;1749059;80;21037;-52
2022/12/28 10:24:19;;;;;;;2.60;0.60;;;;;;;4.01;100.00;100386.39;1745359;80;21332;-51
2022/12/28 10:26:45;;;;;;;2.90;1.03;;;;;;;3.92;100.00;100387.83;1742541;80;21567;-52
2022/12/28 10:29:21;;;;;;;5.27;0.50;;;;;;;3.82;100.00;100392.41;1744559;80;21837;-51
2022/12/28 10:32:00;;;;;;;4.17;1.27;;;;;;;3.71;100.00;100395.62;1744541;80;21113;-50
2022/12/28 10:34:27;;;;;;;0.90;0.40;;;;;;;3.58;100.00;100389.52;1749884;81;21072;-52
2022/12/28 10:36:54;;;;;;;3.00;0.43;;;;;;;3.50;100.00;100391.82;1747198;81;21062;-51
2022/12/28 10:39:29;;;;;;;2.77;0.43;;;;;;;3.47;100.00;100391.88;1742844;80;21052;-52
2022/12/28 10:41:57;;;;;;;0.90;0.40;;;;;;;3.43;100.00;100403.86;1741745;80;22162;-54
2022/12/28 10:44:29;;;;;;;3.10;0.50;;;;;;;3.37;100.00;100390.63;1743311;80;21029;-51
2022/12/28 10:47:01;;;;;;;1.30;0.40;;;;;;;3.36;100.00;100395.51;1714755;82;21030;-54
2022/12/28 10:49:36;;;;;;;3.83;0.50;;;;;;;3.40;100.00;100391.05;1712789;82;21586;-51
2022/12/28 10:52:17;;;;;;;2.70;0.50;;;;;;;3.42;100.00;100386.13;1716606;81;21580;-49
2022/12/28 10:54:44;;;;;;;2.10;0.50;;;;;;;3.42;100.00;100385.24;1669283;84;21699;-53
2022/12/28 10:57:18;;;;;;;5.03;0.73;;;;;;;3.42;100.00;100392.78;1690479;82;21112;-49
2022/12/28 10:59:45;;;;;;;3.02;0.60;;;;;;;3.43;100.00;100393.22;1690422;84;21077;-50
2022/12/28 11:02:28;;;;;;;2.30;0.83;;;;;;;3.41;100.00;100402.98;1693125;82;21089;-52
2022/12/28 11:05:01;;;;;;;2.63;0.63;;;;;;;3.41;100.00;100404.77;1696153;82;21061;-49
2022/12/28 11:07:36;;;;;;;2.90;0.60;;;;;;;3.41;100.00;100406.09;1695461;83;21746;-50
2022/12/28 11:10:26;;;;;;;2.27;0.50;;;;;;;3.41;100.00;100399.00;1689300;82;21105;-49
2022/12/28 11:12:59;;;;;;;5.73;0.60;;;;;;;3.40;100.00;100400.37;1674774;84;21579;-50
2022/12/28 11:15:29;;;;;;;4.10;0.60;;;;;;;3.40;100.00;100400.37;1675004;84;21141;-51
2022/12/28 11:17:58;;;;;;;2.60;0.50;;;;;;;3.38;100.00;100404.37;1675189;84;21062;-52
2022/12/28 11:20:37;;;;;;;1.37;0.50;;;;;;;3.36;100.00;100402.61;1713819;81;21809;-50
2022/12/28 11:23:07;;;;;;;3.13;0.80;;;;;;;3.35;100.00;100404.83;1716502;81;21074;-49
2022/12/28 11:25:36;;;;;;;1.67;0.50;;;;;;;3.37;100.00;100410.58;1721773;82;21061;-49
2022/12/28 11:28:12;;;;;;;2.43;0.97;;;;;;;3.35;100.00;100412.81;1714260;82;21078;-50
2022/12/28 11:30:38;;;;;;;2.73;0.43;;;;;;;3.33;100.00;100419.92;1716035;81;21597;-50
2022/12/28 11:33:08;;;;;;;2.23;0.50;;;;;;;3.30;100.00;100414.64;1719747;82;21846;-53
2022/12/28 11:35:37;;;;;;;2.00;0.60;;;;;;;3.28;100.00;100408.44;1718304;82;21018;-50
2022/12/28 11:38:06;;;;;;;2.83;0.60;;;;;;;3.26;100.00;100409.78;1714666;81;21069;-53
2022/12/28 11:40:46;;;;;;;4.97;0.60;;;;;;;3.26;100.00;100408.89;1714838;81;21157;-52
2022/12/28 11:43:38;;;;;;;2.73;0.70;;;;;;;3.26;100.00;100413.77;1713363;81;21524;-49
2022/12/28 11:46:25;;;;;;;3.60;1.27;;;;;;;3.25;100.00;100413.78;1717316;81;23330;-50
2022/12/28 11:49:23;;;;;;;2.20;0.70;;;;;;;3.26;100.00;100420.87;1716391;81;21049;-51
2022/12/28 11:52:22;;;;;;;4.33;0.50;;;;;;;3.26;100.00;100428.85;1717377;81;21100;-49
2022/12/28 11:55:00;;;;;;;1.30;0.50;;;;;;;3.26;100.00;100424.41;1714330;81;21113;-50
2022/12/28 11:57:41;;;;;;;2.70;0.63;;;;;;;3.26;100.00;100428.85;1714858;81;21136;-48
2022/12/28 12:00:25;;;;;;;1.13;0.50;;;;;;;3.27;100.00;100426.63;1710167;81;22604;-50
2022/12/28 12:02:59;;;;;;;4.87;0.60;;;;;;;3.29;100.00;100424.84;1716634;81;21079;-52
2022/12/28 12:05:40;;;;;;;3.93;0.70;;;;;;;3.30;100.00;100430.61;1715156;81;21068;-51
2022/12/28 12:08:18;;;;;;;3.85;0.80;;;;;;;3.29;100.00;100426.17;1714442;81;21101;-48
2022/12/28 12:10:46;;;;;;;2.90;0.63;;;;;;;3.29;100.00;100436.38;1722214;81;21725;-53
2022/12/28 12:13:31;;;;;;;2.37;0.60;;;;;;;3.30;100.00;100431.49;1742530;80;21842;-51